createdAt,value
2023-04-15T00:01:11.875Z,96175.60
2023-04-15T00:03:39.126Z,96176.40
2023-04-15T00:06:06.141Z,96173.20
2023-04-15T00:08:33.236Z,96174.40
2023-04-15T00:11:05.810Z,96175.00
2023-04-15T00:13:35.452Z,96172.80
2023-04-15T00:16:02.692Z,96165.20
2023-04-15T00:18:29.881Z,96163.40
2023-04-15T00:20:56.728Z,96163.60
2023-04-15T00:23:23.493Z,96159.80
2023-04-15T00:25:51.128Z,96160.40
2023-04-15T00:28:18.458Z,96152.80
2023-04-15T00:30:46.122Z,96145.80
2023-04-15T00:33:14.356Z,96152.00
2023-04-15T00:35:41.522Z,96156.20
2023-04-15T00:38:08.739Z,96150.60
2023-04-15T00:40:35.981Z,96149.60
2023-04-15T00:43:02.948Z,96143.40
2023-04-15T00:45:30.212Z,96153.40
2023-04-15T00:47:56.930Z,96150.60
2023-04-15T00:50:23.791Z,96148.60
2023-04-15T00:52:50.802Z,96143.40
2023-04-15T00:55:17.492Z,96149.60
2023-04-15T00:57:44.700Z,96146.40
2023-04-15T01:00:12.300Z,96140.40
2023-04-15T01:02:39.620Z,96134.60
2023-04-15T01:05:07.696Z,96141.60
2023-04-15T01:07:34.328Z,96144.20
2023-04-15T01:10:04.720Z,96141.60
2023-04-15T01:12:33.330Z,96146.80
2023-04-15T01:15:01.663Z,96141.40
2023-04-15T01:17:28.346Z,96138.60
2023-04-15T01:19:57.968Z,96149.80
2023-04-15T01:22:26.680Z,96148.60
2023-04-15T01:25:13.188Z,96154.60
2023-04-15T01:27:42.515Z,96152.40
2023-04-15T01:30:11.551Z,96143.60
2023-04-15T01:32:38.752Z,96153.00
2023-04-15T01:35:06.422Z,96155.40
2023-04-15T01:37:33.735Z,96145.00
2023-04-15T01:40:00.403Z,96138.00
2023-04-15T01:42:27.760Z,96143.80
2023-04-15T01:44:54.854Z,96135.60
2023-04-15T01:47:21.652Z,96141.80
2023-04-15T01:49:48.506Z,96137.20
2023-04-15T01:52:15.803Z,96136.00
2023-04-15T01:54:42.592Z,96138.20
2023-04-15T01:57:09.898Z,96137.40
2023-04-15T01:59:37.340Z,96137.00
2023-04-15T02:02:05.498Z,96140.40
2023-04-15T02:04:32.687Z,96145.80
2023-04-15T02:07:00.739Z,96144.20
2023-04-15T02:09:27.909Z,96144.40
2023-04-15T02:11:54.504Z,96139.60
2023-04-15T02:14:21.499Z,96138.20
2023-04-15T02:16:48.413Z,96137.20
2023-04-15T02:19:15.850Z,96137.60
2023-04-15T02:21:42.443Z,96139.80
2023-04-15T02:24:09.170Z,96142.00
2023-04-15T02:26:36.295Z,96142.20
2023-04-15T02:29:04.265Z,96140.40
2023-04-15T02:31:34.094Z,96148.00
2023-04-15T02:34:03.073Z,96151.20
2023-04-15T02:36:31.663Z,96155.40
2023-04-15T02:38:58.704Z,96155.20
2023-04-15T02:41:28.533Z,96150.40
2023-04-15T02:43:55.499Z,96149.60
2023-04-15T02:46:23.051Z,96148.80
2023-04-15T02:48:50.549Z,96147.60
2023-04-15T02:51:22.879Z,96151.40
2023-04-15T02:53:50.911Z,96150.40
2023-04-15T02:56:19.348Z,96152.00
2023-04-15T02:58:46.234Z,96146.20
2023-04-15T03:01:13.674Z,96148.60
2023-04-15T03:03:41.093Z,96150.80
2023-04-15T03:06:09.083Z,96147.20
2023-04-15T03:08:36.439Z,96144.00
2023-04-15T03:11:04.488Z,96145.20
2023-04-15T03:13:31.756Z,96143.20
2023-04-15T03:15:59.237Z,96144.80
2023-04-15T03:18:27.155Z,96142.60
2023-04-15T03:20:53.813Z,96135.80
2023-04-15T03:23:20.903Z,96139.80
2023-04-15T03:25:48.143Z,96143.60
2023-04-15T03:28:15.024Z,96143.20
2023-04-15T03:30:41.907Z,96145.60
2023-04-15T03:33:09.097Z,96141.60
2023-04-15T03:35:36.353Z,96140.40
2023-04-15T03:38:02.966Z,96146.80
2023-04-15T03:40:29.671Z,96138.40
2023-04-15T03:42:56.328Z,96143.80
2023-04-15T03:45:22.894Z,96140.20
2023-04-15T03:47:49.935Z,96138.20
2023-04-15T03:50:16.717Z,96143.00
2023-04-15T03:52:45.059Z,96144.00
2023-04-15T03:55:11.714Z,96145.20
2023-04-15T03:57:39.243Z,96153.00
2023-04-15T04:00:09.329Z,96149.00
2023-04-15T04:02:39.414Z,96151.80
2023-04-15T04:05:06.374Z,96154.00
2023-04-15T04:07:33.034Z,96151.40
2023-04-15T04:09:59.730Z,96160.40
2023-04-15T04:12:26.323Z,96154.20
2023-04-15T04:14:52.903Z,96154.80
2023-04-15T04:17:19.656Z,96153.80
2023-04-15T04:19:46.486Z,96158.20
2023-04-15T04:22:13.074Z,96157.20
2023-04-15T04:24:39.888Z,96156.00
2023-04-15T04:27:06.516Z,96154.00
2023-04-15T04:29:33.193Z,96155.80
2023-04-15T04:31:59.855Z,96156.60
2023-04-15T04:34:26.596Z,96155.00
2023-04-15T04:36:53.181Z,96159.40
2023-04-15T04:39:19.841Z,96161.20
2023-04-15T04:41:46.708Z,96168.60
2023-04-15T04:44:13.277Z,96175.20
2023-04-15T04:46:39.866Z,96172.20
2023-04-15T04:49:07.064Z,96176.00
2023-04-15T04:51:33.848Z,96176.80
2023-04-15T04:54:01.812Z,96180.20
2023-04-15T04:56:30.330Z,96179.80
2023-04-15T04:58:57.177Z,96182.40
2023-04-15T05:01:23.882Z,96181.00
2023-04-15T05:03:50.743Z,96186.60
2023-04-15T05:06:17.468Z,96186.20
2023-04-15T05:08:44.038Z,96194.80
2023-04-15T05:11:10.628Z,96197.60
2023-04-15T05:13:38.767Z,96199.40
2023-04-15T05:16:06.308Z,96201.60
2023-04-15T05:18:33.543Z,96198.60
2023-04-15T05:21:00.401Z,96189.00
2023-04-15T05:23:27.600Z,96201.80
2023-04-15T05:25:54.240Z,96201.40
2023-04-15T05:28:21.233Z,96201.40
2023-04-15T05:30:47.931Z,96201.20
2023-04-15T05:33:14.690Z,96199.00
2023-04-15T05:35:41.475Z,96206.00
2023-04-15T05:38:08.297Z,96208.00
2023-04-15T05:40:34.903Z,96209.20
2023-04-15T05:43:01.482Z,96213.20
2023-04-15T05:45:28.049Z,96212.40
2023-04-15T05:47:54.852Z,96218.00
2023-04-15T05:50:22.152Z,96218.20
2023-04-15T05:52:48.783Z,96214.00
2023-04-15T05:55:15.536Z,96214.60
2023-04-15T05:57:42.312Z,96216.40
2023-04-15T06:00:10.192Z,96218.00
2023-04-15T06:02:37.195Z,96229.20
2023-04-15T06:05:05.829Z,96230.00
2023-04-15T06:07:32.448Z,96223.40
2023-04-15T06:09:59.013Z,96228.20
2023-04-15T06:12:25.732Z,96225.80
2023-04-15T06:14:52.367Z,96231.20
2023-04-15T06:17:19.315Z,96233.40
2023-04-15T06:19:46.034Z,96234.80
2023-04-15T06:22:12.651Z,96235.00
2023-04-15T06:24:39.295Z,96243.00
2023-04-15T06:27:05.895Z,96247.20
2023-04-15T06:29:32.490Z,96245.40
2023-04-15T06:31:59.054Z,96246.60
2023-04-15T06:34:25.643Z,96247.00
2023-04-15T06:36:52.266Z,96246.60
2023-04-15T06:39:18.886Z,96246.20
2023-04-15T06:41:45.567Z,96247.40
2023-04-15T06:44:12.633Z,96252.00
2023-04-15T06:46:39.221Z,96252.40
2023-04-15T06:49:05.900Z,96252.00
2023-04-15T06:51:32.826Z,96258.00
2023-04-15T06:53:59.548Z,96263.00
2023-04-15T06:56:26.241Z,96259.80
2023-04-15T06:58:54.255Z,96262.80
2023-04-15T07:01:21.493Z,96264.40
2023-04-15T07:03:48.304Z,96269.60
2023-04-15T07:06:15.241Z,96268.60
2023-04-15T07:08:41.940Z,96274.00
2023-04-15T07:11:08.812Z,96272.20
2023-04-15T07:13:35.679Z,96279.00
2023-04-15T07:16:02.459Z,96276.60
2023-04-15T07:18:29.107Z,96277.00
2023-04-15T07:20:56.170Z,96278.80
2023-04-15T07:23:23.340Z,96280.40
2023-04-15T07:25:49.969Z,96282.60
2023-04-15T07:28:16.714Z,96280.80
2023-04-15T07:30:43.454Z,96283.60
2023-04-15T07:33:10.070Z,96288.00
2023-04-15T07:35:36.834Z,96291.40
2023-04-15T07:38:03.826Z,96287.40
2023-04-15T07:40:30.663Z,96291.80
2023-04-15T07:42:58.478Z,96290.60
2023-04-15T07:45:25.290Z,96291.20
2023-04-15T07:47:52.068Z,96300.60
2023-04-15T07:50:19.839Z,96289.80
2023-04-15T07:52:46.508Z,96303.20
2023-04-15T07:55:14.443Z,96300.20
2023-04-15T07:57:41.067Z,96306.20
2023-04-15T08:00:08.643Z,96311.80
2023-04-15T08:02:42.786Z,96307.40
2023-04-15T08:05:11.015Z,96311.00
2023-04-15T08:07:38.440Z,96314.20
2023-04-15T08:10:06.962Z,96316.60
2023-04-15T08:12:33.655Z,96327.00
2023-04-15T08:15:01.099Z,96325.60
2023-04-15T08:17:28.463Z,96326.60
2023-04-15T08:19:55.274Z,96329.00
2023-04-15T08:22:22.583Z,96333.80
2023-04-15T08:24:49.219Z,96330.40
2023-04-15T08:27:15.957Z,96334.60
2023-04-15T08:29:42.741Z,96338.60
2023-04-15T08:32:09.657Z,96345.00
2023-04-15T08:34:36.811Z,96346.00
2023-04-15T08:37:03.418Z,96351.20
2023-04-15T08:39:30.280Z,96354.80
2023-04-15T08:42:03.663Z,96361.40
2023-04-15T08:44:34.609Z,96365.00
2023-04-15T08:47:03.099Z,96365.60
2023-04-15T08:49:31.423Z,96366.20
2023-04-15T08:51:59.476Z,96368.80
2023-04-15T08:54:28.575Z,96366.20
2023-04-15T08:56:58.605Z,96368.00
2023-04-15T08:59:25.777Z,96366.00
2023-04-15T09:01:53.717Z,96369.80
2023-04-15T09:04:20.563Z,96368.00
2023-04-15T09:06:47.262Z,96376.80
2023-04-15T09:09:14.580Z,96374.80
2023-04-15T09:11:42.586Z,96380.80
2023-04-15T09:14:09.408Z,96378.40
2023-04-15T09:17:02.056Z,96376.40
2023-04-15T09:19:30.771Z,96376.80
2023-04-15T09:21:59.939Z,96377.00
2023-04-15T09:24:40.942Z,96382.00
2023-04-15T09:27:07.882Z,96377.80
2023-04-15T09:29:34.685Z,96386.20
2023-04-15T09:32:16.457Z,96382.40
2023-04-15T09:34:44.472Z,96389.00
2023-04-15T09:37:11.299Z,96387.20
2023-04-15T09:39:52.917Z,96390.00
2023-04-15T09:42:27.436Z,96389.00
2023-04-15T09:44:54.371Z,96392.60
2023-04-15T09:47:32.130Z,96392.40
2023-04-15T09:50:00.313Z,96395.40
2023-04-15T09:52:28.794Z,96394.80
2023-04-15T09:54:59.641Z,96397.20
2023-04-15T09:57:36.315Z,96400.40
2023-04-15T10:00:08.868Z,96402.40
2023-04-15T10:02:37.188Z,96399.20
2023-04-15T10:05:04.736Z,96405.40
2023-04-15T10:07:32.821Z,96405.20
2023-04-15T10:10:03.791Z,96407.60
2023-04-15T10:12:33.472Z,96411.80
2023-04-15T10:15:07.081Z,96411.80
2023-04-15T10:17:37.288Z,96408.80
2023-04-15T10:20:07.560Z,96413.80
2023-04-15T10:22:36.721Z,96413.80
2023-04-15T10:25:04.574Z,96414.60
2023-04-15T10:27:31.462Z,96419.60
2023-04-15T10:30:03.692Z,96423.40
2023-04-15T10:32:31.150Z,96424.00
2023-04-15T10:34:58.725Z,96425.00
2023-04-15T10:37:38.266Z,96427.20
2023-04-15T10:40:34.697Z,96426.20
2023-04-15T10:43:02.782Z,96433.20
2023-04-15T10:45:34.086Z,96430.20
2023-04-15T10:48:08.112Z,96431.40
2023-04-15T10:50:35.146Z,96431.20
2023-04-15T10:53:05.395Z,96434.40
2023-04-15T10:55:34.204Z,96435.60
2023-04-15T10:58:02.364Z,96442.40
2023-04-15T11:00:32.124Z,96441.20
2023-04-15T11:03:08.127Z,96444.20
2023-04-15T11:05:54.214Z,96447.00
2023-04-15T11:08:41.075Z,96448.20
2023-04-15T11:11:07.778Z,96445.80
2023-04-15T11:13:34.439Z,96456.60
2023-04-15T11:16:03.305Z,96455.20
2023-04-15T11:18:34.435Z,96456.20
2023-04-15T11:21:07.859Z,96460.60
2023-04-15T11:23:44.106Z,96461.60
2023-04-15T11:26:15.354Z,96460.40
2023-04-15T11:28:46.200Z,96463.00
2023-04-15T11:31:19.894Z,96464.80
2023-04-15T11:33:59.883Z,96462.20
2023-04-15T11:36:29.029Z,96461.60
2023-04-15T11:38:58.204Z,96463.40
2023-04-15T11:41:25.251Z,96469.80
2023-04-15T11:43:52.949Z,96473.80
2023-04-15T11:46:21.452Z,96470.80
2023-04-15T11:48:48.158Z,96480.20
2023-04-15T11:51:14.933Z,96482.40
2023-04-15T11:53:47.920Z,96481.60
2023-04-15T11:56:21.949Z,96478.60
2023-04-15T11:58:52.947Z,96486.60
2023-04-15T12:01:20.157Z,96483.60
2023-04-15T12:03:49.274Z,96489.00
2023-04-15T12:06:22.672Z,96490.80
2023-04-15T12:08:55.559Z,96491.00
2023-04-15T12:11:30.856Z,96487.80
2023-04-15T12:14:30.498Z,96495.40
2023-04-15T12:17:06.921Z,96493.20
2023-04-15T12:19:40.557Z,96496.00
2023-04-15T12:22:13.974Z,96493.40
2023-04-15T12:24:49.549Z,96503.60
2023-04-15T12:27:17.617Z,96503.20
2023-04-15T12:29:44.806Z,96508.40
2023-04-15T12:32:21.018Z,96511.40
2023-04-15T12:34:54.313Z,96515.40
2023-04-15T12:37:21.748Z,96520.40
2023-04-15T12:39:50.459Z,96514.00
2023-04-15T12:42:18.435Z,96517.40
2023-04-15T12:44:45.183Z,96516.20
2023-04-15T12:47:13.305Z,96520.60
2023-04-15T12:49:40.973Z,96524.20
2023-04-15T12:52:08.083Z,96526.40
2023-04-15T12:54:35.984Z,96525.20
2023-04-15T12:57:06.804Z,96529.80
2023-04-15T12:59:35.492Z,96530.20
2023-04-15T13:02:04.496Z,96536.80
2023-04-15T13:04:31.696Z,96539.00
2023-04-15T13:06:58.676Z,96537.80
2023-04-15T13:09:25.302Z,96539.00
2023-04-15T13:11:52.899Z,96546.00
2023-04-15T13:14:19.924Z,96549.40
2023-04-15T13:16:46.571Z,96555.20
2023-04-15T13:19:13.177Z,96552.80
2023-04-15T13:21:39.799Z,96560.40
2023-04-15T13:24:07.426Z,96565.20
2023-04-15T13:26:34.327Z,96566.40
2023-04-15T13:29:01.218Z,96566.40
2023-04-15T13:31:27.972Z,96569.80
2023-04-15T13:33:54.948Z,96576.00
2023-04-15T13:36:21.650Z,96576.20
2023-04-15T13:38:50.952Z,96576.60
2023-04-15T13:41:18.254Z,96578.60
2023-04-15T13:43:44.821Z,96582.20
2023-04-15T13:46:11.496Z,96580.80
2023-04-15T13:48:38.323Z,96586.20
2023-04-15T13:51:05.114Z,96587.60
2023-04-15T13:53:38.827Z,96586.60
2023-04-15T13:56:08.392Z,96585.20
2023-04-15T13:58:36.373Z,96589.80
2023-04-15T14:01:05.828Z,96584.80
2023-04-15T14:03:34.744Z,96585.00
2023-04-15T14:06:01.588Z,96582.80
2023-04-15T14:08:28.385Z,96584.80
2023-04-15T14:10:55.087Z,96584.40
2023-04-15T14:13:21.672Z,96591.20
2023-04-15T14:15:48.300Z,96590.40
2023-04-15T14:18:15.343Z,96592.20
2023-04-15T14:20:41.923Z,96597.20
2023-04-15T14:23:08.518Z,96605.40
2023-04-15T14:25:35.138Z,96608.60
2023-04-15T14:28:03.418Z,96608.20
2023-04-15T14:30:30.877Z,96613.00
2023-04-15T14:32:57.685Z,96615.20
2023-04-15T14:35:26.570Z,96612.00
2023-04-15T14:37:54.439Z,96611.80
2023-04-15T14:40:21.546Z,96615.80
2023-04-15T14:42:48.422Z,96620.80
2023-04-15T14:45:15.156Z,96620.80
2023-04-15T14:47:41.994Z,96625.20
2023-04-15T14:50:09.831Z,96624.80
2023-04-15T14:52:39.220Z,96628.20
2023-04-15T14:55:11.148Z,96625.80
2023-04-15T14:57:40.067Z,96631.80
2023-04-15T15:00:08.763Z,96635.20
2023-04-15T15:02:39.582Z,96634.40
2023-04-15T15:05:08.448Z,96645.40
2023-04-15T15:07:37.192Z,96645.20
2023-04-15T15:10:05.310Z,96652.20
2023-04-15T15:12:33.112Z,96652.40
2023-04-15T15:15:00.469Z,96652.00
2023-04-15T15:17:28.221Z,96654.60
2023-04-15T15:19:54.782Z,96654.80
2023-04-15T15:22:21.595Z,96655.40
2023-04-15T15:24:48.387Z,96659.00
2023-04-15T15:27:15.024Z,96657.40
2023-04-15T15:29:41.798Z,96664.00
2023-04-15T15:32:08.595Z,96669.20
2023-04-15T15:34:35.272Z,96667.40
2023-04-15T15:37:02.124Z,96670.80
2023-04-15T15:39:28.767Z,96671.20
2023-04-15T15:41:55.374Z,96676.40
2023-04-15T15:44:22.011Z,96675.40
2023-04-15T15:46:51.007Z,96681.00
2023-04-15T15:49:18.072Z,96680.80
2023-04-15T15:51:45.934Z,96684.40
2023-04-15T15:54:13.010Z,96688.40
2023-04-15T15:56:39.637Z,96691.20
2023-04-15T15:59:06.560Z,96691.20
2023-04-15T16:01:33.666Z,96696.20
2023-04-15T16:04:00.908Z,96698.00
2023-04-15T16:06:28.181Z,96697.40
2023-04-15T16:08:55.075Z,96700.80
2023-04-15T16:11:21.715Z,96698.80
2023-04-15T16:13:48.544Z,96703.20
2023-04-15T16:16:15.485Z,96708.00
2023-04-15T16:18:42.247Z,96710.20
2023-04-15T16:21:09.072Z,96713.80
2023-04-15T16:23:37.094Z,96720.00
2023-04-15T16:26:03.887Z,96718.00
2023-04-15T16:28:30.546Z,96722.00
2023-04-15T16:30:57.389Z,96723.00
2023-04-15T16:33:24.461Z,96720.80
2023-04-15T16:35:52.000Z,96724.80
2023-04-15T16:38:18.674Z,96722.80
2023-04-15T16:40:45.756Z,96730.80
2023-04-15T16:43:12.321Z,96734.60
2023-04-15T16:45:38.934Z,96740.60
2023-04-15T16:48:06.008Z,96744.00
2023-04-15T16:50:33.104Z,96751.00
2023-04-15T16:52:59.696Z,96744.00
2023-04-15T16:55:27.003Z,96749.80
2023-04-15T16:58:02.117Z,96759.20
2023-04-15T17:00:36.617Z,96754.00
2023-04-15T17:03:05.939Z,96759.80
2023-04-15T17:05:33.691Z,96764.20
2023-04-15T17:08:00.795Z,96768.00
2023-04-15T17:10:28.247Z,96768.80
2023-04-15T17:12:58.271Z,96765.40
2023-04-15T17:15:26.261Z,96769.00
2023-04-15T17:17:53.225Z,96774.60
2023-04-15T17:20:20.351Z,96777.80
2023-04-15T17:22:48.740Z,96786.20
2023-04-15T17:25:15.964Z,96787.80
2023-04-15T17:27:42.667Z,96791.20
2023-04-15T17:30:10.701Z,96796.80
2023-04-15T17:32:39.467Z,96795.80
2023-04-15T17:35:07.392Z,96799.80
2023-04-15T17:37:34.665Z,96807.20
2023-04-15T17:40:01.734Z,96811.60
2023-04-15T17:42:28.948Z,96811.40
2023-04-15T17:44:55.601Z,96816.00
2023-04-15T17:47:22.352Z,96819.40
2023-04-15T17:49:48.946Z,96823.40
2023-04-15T17:52:15.597Z,96831.00
2023-04-15T17:54:42.223Z,96835.40
2023-04-15T17:57:09.559Z,96835.80
2023-04-15T17:59:36.293Z,96841.00
2023-04-15T18:02:02.962Z,96841.40
2023-04-15T18:04:29.993Z,96847.00
2023-04-15T18:06:56.803Z,96849.20
2023-04-15T18:09:23.395Z,96850.00
2023-04-15T18:11:49.965Z,96857.60
2023-04-15T18:14:27.111Z,96862.20
2023-04-15T18:17:00.745Z,96862.60
2023-04-15T18:19:27.820Z,96863.00
2023-04-15T18:21:54.426Z,96868.00
2023-04-15T18:24:21.029Z,96872.60
2023-04-15T18:26:49.222Z,96876.60
2023-04-15T18:29:16.444Z,96876.80
2023-04-15T18:31:43.236Z,96875.20
2023-04-15T18:34:10.190Z,96875.20
2023-04-15T18:36:36.855Z,96880.20
2023-04-15T18:39:04.646Z,96886.20
2023-04-15T18:41:31.412Z,96889.80
2023-04-15T18:43:57.998Z,96891.00
2023-04-15T18:46:24.820Z,96895.20
2023-04-15T18:48:51.546Z,96903.20
2023-04-15T18:51:18.144Z,96906.00
2023-04-15T18:53:44.807Z,96909.80
2023-04-15T18:56:11.441Z,96912.60
2023-04-15T18:59:09.521Z,96912.60
2023-04-15T19:01:24.801Z,96921.40
2023-04-15T19:03:51.565Z,96925.80
2023-04-15T19:06:18.264Z,96927.60
2023-04-15T19:08:44.880Z,96928.20
2023-04-15T19:11:11.516Z,96930.00
2023-04-15T19:13:38.146Z,96936.20
2023-04-15T19:16:05.271Z,96943.00
2023-04-15T19:18:31.837Z,96944.20
2023-04-15T19:20:58.637Z,96951.80
2023-04-15T19:23:25.271Z,96954.40
2023-04-15T19:25:51.918Z,96958.60
2023-04-15T19:28:18.545Z,96965.80
2023-04-15T19:30:45.174Z,96970.40
2023-04-15T19:33:12.503Z,96969.20
2023-04-15T19:35:40.991Z,96971.40
2023-04-15T19:38:07.611Z,96975.60
2023-04-15T19:40:34.202Z,96979.80
2023-04-15T19:43:00.928Z,96980.60
2023-04-15T19:45:27.571Z,96980.40
2023-04-15T19:47:54.589Z,96983.60
2023-04-15T19:50:25.868Z,96977.00
2023-04-15T19:52:53.616Z,96977.60
2023-04-15T19:55:20.390Z,96983.20
2023-04-15T19:57:47.015Z,96986.80
2023-04-15T20:00:13.730Z,96991.80
2023-04-15T20:02:40.532Z,96988.00
2023-04-15T20:05:09.812Z,96993.20
2023-04-15T20:07:36.805Z,96988.00
2023-04-15T20:10:12.078Z,96991.20
2023-04-15T20:12:49.961Z,96989.00
2023-04-15T20:15:21.573Z,96988.40
2023-04-15T20:17:48.218Z,96995.60
2023-04-15T20:20:15.096Z,96999.00
2023-04-15T20:22:41.908Z,97004.60
2023-04-15T20:25:09.077Z,97008.40
2023-04-15T20:27:35.706Z,97011.20
2023-04-15T20:30:04.958Z,97011.00
2023-04-15T20:32:35.578Z,97017.40
2023-04-15T20:35:04.843Z,97016.40
2023-04-15T20:37:33.646Z,97019.00
2023-04-15T20:40:01.245Z,97023.60
2023-04-15T20:42:32.032Z,97020.80
2023-04-15T20:44:58.718Z,97026.60
2023-04-15T20:47:25.538Z,97026.00
2023-04-15T20:49:52.354Z,97032.00
2023-04-15T20:52:18.979Z,97035.40
2023-04-15T20:54:47.061Z,97041.80
2023-04-15T20:57:13.835Z,97043.40
2023-04-15T20:59:40.414Z,97039.80
2023-04-15T21:02:07.210Z,97044.20
2023-04-15T21:04:33.965Z,97043.40
2023-04-15T21:07:00.906Z,97050.00
2023-04-15T21:09:27.591Z,97050.80
2023-04-15T21:12:01.119Z,97048.60
2023-04-15T21:14:29.278Z,97054.00
2023-04-15T21:17:03.322Z,97054.20
2023-04-15T21:19:29.911Z,97057.00
2023-04-15T21:21:56.505Z,97055.40
2023-04-15T21:24:23.120Z,97063.60
2023-04-15T21:26:50.039Z,97069.40
2023-04-15T21:29:16.652Z,97069.00
2023-04-15T21:31:43.372Z,97071.00
2023-04-15T21:34:10.732Z,97075.80
2023-04-15T21:36:38.488Z,97075.80
2023-04-15T21:39:06.263Z,97077.20
2023-04-15T21:41:33.227Z,97079.60
2023-04-15T21:43:59.852Z,97080.40
2023-04-15T21:46:32.925Z,97081.20
2023-04-15T21:49:01.990Z,97075.40
2023-04-15T21:51:28.787Z,97083.40
2023-04-15T21:53:55.971Z,97088.40
2023-04-15T21:56:24.327Z,97088.80
2023-04-15T21:58:56.840Z,97095.60
2023-04-15T22:01:26.680Z,97099.80
2023-04-15T22:03:54.278Z,97101.40
2023-04-15T22:06:21.426Z,97098.80
2023-04-15T22:08:56.725Z,97105.20
2023-04-15T22:11:28.675Z,97109.40
2023-04-15T22:13:59.381Z,97109.60
2023-04-15T22:16:27.160Z,97111.60
2023-04-15T22:18:55.755Z,97117.60
2023-04-15T22:21:22.945Z,97121.20
2023-04-15T22:23:52.055Z,97123.80
2023-04-15T22:26:18.754Z,97131.80
2023-04-15T22:28:45.542Z,97136.00
2023-04-15T22:31:12.536Z,97135.80
2023-04-15T22:33:39.233Z,97141.40
2023-04-15T22:36:06.309Z,97146.80
2023-04-15T22:38:32.986Z,97143.20
2023-04-15T22:40:59.607Z,97151.40
2023-04-15T22:43:27.508Z,97153.60
2023-04-15T22:45:55.129Z,97154.20
2023-04-15T22:48:22.203Z,97153.40
2023-04-15T22:50:49.391Z,97158.60
2023-04-15T22:53:17.260Z,97162.40
2023-04-15T22:55:48.521Z,97166.20
2023-04-15T22:58:17.179Z,97164.40
2023-04-15T23:00:44.976Z,97170.00
2023-04-15T23:03:11.858Z,97169.80
2023-04-15T23:05:41.165Z,97171.40
2023-04-15T23:08:08.287Z,97172.40
2023-04-15T23:10:34.864Z,97177.80
2023-04-15T23:13:01.484Z,97173.20
2023-04-15T23:15:28.085Z,97179.80
2023-04-15T23:17:54.738Z,97177.00
2023-04-15T23:20:21.486Z,97177.00
2023-04-15T23:22:48.128Z,97177.00
2023-04-15T23:25:14.783Z,97176.20
2023-04-15T23:27:41.391Z,97176.20
2023-04-15T23:30:08.777Z,97177.00
2023-04-15T23:32:35.427Z,97179.00
2023-04-15T23:35:02.208Z,97176.60
2023-04-15T23:37:33.602Z,97183.20
2023-04-15T23:40:00.466Z,97177.00
2023-04-15T23:42:27.067Z,97176.40
2023-04-15T23:44:53.644Z,97181.00
2023-04-15T23:47:21.021Z,97177.80
2023-04-15T23:49:47.675Z,97183.00
2023-04-15T23:52:14.600Z,97180.40
2023-04-15T23:54:41.257Z,97182.60
2023-04-15T23:57:07.872Z,97185.20
2023-04-15T23:59:34.457Z,97183.40
